Time;durP1;ratioP1;P1;durP2;ratioP2;P2;SDS_P1;SDS_P2;PMS_P1;PMS_P2;Temp;Humidity;BMP_temperature;BMP_pressure;BME280_temperature;BME280_humidity;BME280_pressure;Samples;Min_cycle;Max_cycle;Signal;HPM_P1;HPM_P2
2022/08/13 00:00:50;;;;;;;;;;;21.20;73.70;;;;;;5054739;28;20162;-68
2022/08/13 00:03:19;;;;;;;;;;;21.20;73.90;;;;;;5054830;28;20252;-69
2022/08/13 00:06:10;;;;;;;;;;;21.20;74.10;;;;;;5054465;28;20582;-69
2022/08/13 00:08:55;;;;;;;;;;;21.20;74.30;;;;;;5054715;28;20227;-69
2022/08/13 00:14:31;;;;;;;;;;;21.20;74.70;;;;;;5054397;28;20136;-69
2022/08/13 00:17:04;;;;;;;;;;;21.20;74.70;;;;;;5054462;28;20711;-69
2022/08/13 00:19:36;;;;;;;;;;;21.10;74.90;;;;;;5054307;28;20399;-67
2022/08/13 00:22:05;;;;;;;;;;;21.10;74.90;;;;;;5054274;28;25069;-69
2022/08/13 00:24:55;;;;;;;;;;;21.10;75.10;;;;;;5054258;28;20484;-69
2022/08/13 00:27:23;;;;;;;;;;;21.00;75.10;;;;;;5053937;28;20746;-69
2022/08/13 00:29:54;;;;;;;;;;;21.00;75.30;;;;;;5054096;28;20763;-68
2022/08/13 00:32:29;;;;;;;;;;;21.00;75.50;;;;;;5054022;28;20497;-69
2022/08/13 00:34:59;;;;;;;;;;;21.00;75.40;;;;;;5053793;28;20274;-69
2022/08/13 00:37:28;;;;;;;;;;;21.00;75.80;;;;;;5053832;28;20063;-69
2022/08/13 00:40:17;;;;;;;;;;;21.00;76.00;;;;;;5054000;28;20036;-68
2022/08/13 00:43:02;;;;;;;;;;;20.90;76.30;;;;;;5054161;28;20662;-68
2022/08/13 00:45:32;;;;;;;;;;;20.80;76.30;;;;;;5053725;28;20212;-68
2022/08/13 00:50:50;;;;;;;;;;;20.80;77.00;;;;;;5053776;28;20219;-69
2022/08/13 00:53:23;;;;;;;;;;;20.70;76.70;;;;;;5053870;28;20183;-69
2022/08/13 00:55:58;;;;;;;;;;;20.70;76.80;;;;;;5053524;28;20255;-69
2022/08/13 00:58:27;;;;;;;;;;;20.80;77.50;;;;;;5053974;28;20114;-69
2022/08/13 01:00:58;;;;;;;;;;;20.70;77.40;;;;;;5053523;28;20675;-69
2022/08/13 01:03:29;;;;;;;;;;;20.70;77.20;;;;;;5053683;28;25093;-69
2022/08/13 01:06:18;;;;;;;;;;;20.70;77.60;;;;;;5053344;28;20107;-69
2022/08/13 01:08:49;;;;;;;;;;;20.70;77.50;;;;;;5053295;28;21022;-68
2022/08/13 01:11:25;;;;;;;;;;;20.70;77.50;;;;;;5053458;28;21109;-69
2022/08/13 01:13:55;;;;;;;;;;;20.70;77.80;;;;;;5053437;28;20750;-68
2022/08/13 01:16:26;;;;;;;;;;;20.70;78.00;;;;;;5053096;28;20232;-69
2022/08/13 01:18:55;;;;;;;;;;;20.70;78.40;;;;;;5053354;28;20317;-69
2022/08/13 01:21:23;;;;;;;;;;;20.60;77.90;;;;;;5052996;28;25081;-69
2022/08/13 01:24:11;;;;;;;;;;;20.70;78.30;;;;;;5053321;28;20147;-70
2022/08/13 01:26:40;;;;;;;;;;;20.70;78.10;;;;;;5053164;28;20450;-69
2022/08/13 01:29:15;;;;;;;;;;;20.70;78.40;;;;;;5053734;28;20259;-68
2022/08/13 01:31:44;;;;;;;;;;;20.60;78.40;;;;;;5052533;28;20213;-69
2022/08/13 01:34:12;;;;;;;;;;;20.60;78.40;;;;;;5052768;28;20161;-69
2022/08/13 01:36:53;;;;;;;;;;;20.60;78.70;;;;;;5052810;28;20699;-68
2022/08/13 01:39:24;;;;;;;;;;;20.70;79.40;;;;;;5053190;28;20754;-69
2022/08/13 01:42:07;;;;;;;;;;;20.60;79.00;;;;;;5053092;28;20206;-69
2022/08/13 01:44:36;;;;;;;;;;;20.60;79.30;;;;;;5052367;28;25133;-69
2022/08/13 01:53:01;;;;;;;;;;;20.40;79.90;;;;;;5052855;28;20718;-69
2022/08/13 01:55:38;;;;;;;;;;;20.40;80.00;;;;;;5052730;28;20786;-69
2022/08/13 01:58:29;;;;;;;;;;;20.40;80.10;;;;;;5053079;28;20047;-68
2022/08/13 02:01:01;;;;;;;;;;;20.40;80.50;;;;;;5034503;28;20666;-68
2022/08/13 02:03:35;;;;;;;;;;;20.40;80.50;;;;;;5052579;28;20196;-68
2022/08/13 02:06:04;;;;;;;;;;;20.30;80.80;;;;;;5052340;28;20342;-68
2022/08/13 02:08:55;;;;;;;;;;;20.20;81.10;;;;;;5052582;28;20422;-69
2022/08/13 02:11:26;;;;;;;;;;;20.20;81.40;;;;;;5052137;28;20836;-66
2022/08/13 02:13:54;;;;;;;;;;;20.20;81.40;;;;;;5052228;28;25058;-69
2022/08/13 02:16:28;;;;;;;;;;;20.10;81.80;;;;;;5052264;28;21125;-69
2022/08/13 02:18:59;;;;;;;;;;;20.10;81.90;;;;;;5052401;28;20405;-69
2022/08/13 02:21:30;;;;;;;;;;;20.00;82.10;;;;;;5052004;28;20390;-69
2022/08/13 02:24:12;;;;;;;;;;;20.00;82.50;;;;;;5052436;28;20479;-69
2022/08/13 02:26:43;;;;;;;;;;;20.10;82.50;;;;;;5051984;28;25132;-69
2022/08/13 02:29:23;;;;;;;;;;;20.00;82.70;;;;;;5052148;28;20302;-69
2022/08/13 02:31:53;;;;;;;;;;;20.00;82.80;;;;;;5051452;28;20823;-69
2022/08/13 02:34:40;;;;;;;;;;;20.00;83.00;;;;;;5051798;28;20066;-69
2022/08/13 02:37:10;;;;;;;;;;;20.00;83.10;;;;;;5052003;28;20150;-69
2022/08/13 02:39:57;;;;;;;;;;;20.00;83.00;;;;;;5051588;28;20303;-69
2022/08/13 02:42:31;;;;;;;;;;;20.00;83.40;;;;;;5052402;28;20623;-69
2022/08/13 02:45:00;;;;;;;;;;;20.00;83.20;;;;;;5051859;28;20075;-69
2022/08/13 02:47:32;;;;;;;;;;;20.00;83.70;;;;;;5051613;28;20579;-68
2022/08/13 02:50:11;;;;;;;;;;;20.00;83.60;;;;;;5051594;28;20962;-69
2022/08/13 02:52:41;;;;;;;;;;;20.00;83.80;;;;;;5051918;28;20266;-69
2022/08/13 02:55:24;;;;;;;;;;;20.00;83.70;;;;;;5050766;28;20401;-69
2022/08/13 02:58:02;;;;;;;;;;;19.90;84.00;;;;;;5051350;28;20181;-69
2022/08/13 03:00:30;;;;;;;;;;;19.90;84.10;;;;;;5051568;28;21290;-69
2022/08/13 03:03:02;;;;;;;;;;;20.00;84.30;;;;;;5051951;28;20038;-69
2022/08/13 03:05:32;;;;;;;;;;;20.00;84.00;;;;;;5051679;28;20415;-69
2022/08/13 03:08:20;;;;;;;;;;;19.90;84.30;;;;;;5051829;28;20009;-69
2022/08/13 03:11:08;;;;;;;;;;;19.90;84.30;;;;;;5051625;28;19968;-69
2022/08/13 03:13:38;;;;;;;;;;;19.90;84.30;;;;;;5051538;28;25084;-69
2022/08/13 03:16:13;;;;;;;;;;;19.90;84.50;;;;;;5051603;28;20372;-69
2022/08/13 03:18:40;;;;;;;;;;;19.90;84.70;;;;;;5051380;28;20355;-69
2022/08/13 03:21:24;;;;;;;;;;;19.80;84.50;;;;;;5051439;28;20192;-69
2022/08/13 03:24:12;;;;;;;;;;;19.80;84.80;;;;;;5051563;28;20075;-69
2022/08/13 03:26:56;;;;;;;;;;;19.80;85.10;;;;;;5051355;28;20021;-69
2022/08/13 03:29:25;;;;;;;;;;;19.80;85.20;;;;;;5051548;28;20324;-69
2022/08/13 03:32:14;;;;;;;;;;;19.80;85.10;;;;;;5051199;28;20123;-69
2022/08/13 03:34:42;;;;;;;;;;;19.90;85.20;;;;;;5074217;22;20065;-64
2022/08/13 03:37:10;;;;;;;;;;;19.80;85.20;;;;;;5032422;28;20505;-65
2022/08/13 03:39:40;;;;;;;;;;;19.80;85.70;;;;;;5032680;28;20007;-64
2022/08/13 03:42:09;;;;;;;;;;;19.80;85.80;;;;;;5033125;28;19989;-64
2022/08/13 03:44:41;;;;;;;;;;;19.70;85.80;;;;;;5032738;28;20298;-64
2022/08/13 03:47:12;;;;;;;;;;;19.70;86.20;;;;;;5033686;28;20790;-64
2022/08/13 03:49:59;;;;;;;;;;;19.80;86.20;;;;;;5032789;28;20418;-64
2022/08/13 03:52:27;;;;;;;;;;;19.70;86.00;;;;;;5032881;28;20009;-64
2022/08/13 03:55:05;;;;;;;;;;;19.70;86.10;;;;;;5033351;28;20059;-64
2022/08/13 03:57:40;;;;;;;;;;;19.70;86.70;;;;;;5033104;28;20004;-64
2022/08/13 04:00:30;;;;;;;;;;;19.70;86.70;;;;;;5033285;28;20666;-64
2022/08/13 04:03:00;;;;;;;;;;;19.60;86.80;;;;;;5032989;28;20729;-64
2022/08/13 04:05:28;;;;;;;;;;;19.60;87.10;;;;;;5033124;28;20036;-64
2022/08/13 04:08:16;;;;;;;;;;;19.60;87.00;;;;;;5035906;28;20124;-64
2022/08/13 04:10:45;;;;;;;;;;;19.60;87.10;;;;;;5035866;28;20792;-64
2022/08/13 04:13:20;;;;;;;;;;;19.50;87.20;;;;;;5036919;28;20558;-64
2022/08/13 04:16:11;;;;;;;;;;;19.50;87.60;;;;;;5036482;28;21340;-64
2022/08/13 04:18:39;;;;;;;;;;;19.50;87.30;;;;;;5036142;28;20463;-64
2022/08/13 04:21:11;;;;;;;;;;;19.50;87.90;;;;;;5036265;28;20066;-64
2022/08/13 04:23:50;;;;;;;;;;;19.50;88.40;;;;;;5035900;28;19998;-64
2022/08/13 04:26:23;;;;;;;;;;;19.50;88.90;;;;;;5036117;28;19976;-64
2022/08/13 04:28:59;;;;;;;;;;;19.50;88.60;;;;;;5036178;28;20058;-64
2022/08/13 04:31:28;;;;;;;;;;;19.40;88.60;;;;;;5035257;28;20034;-65
2022/08/13 04:34:17;;;;;;;;;;;19.40;88.60;;;;;;5036322;28;19975;-64
2022/08/13 04:37:07;;;;;;;;;;;19.50;88.70;;;;;;5036174;28;20017;-64
2022/08/13 04:39:36;;;;;;;;;;;19.50;89.10;;;;;;5036135;28;20002;-64
2022/08/13 04:42:24;;;;;;;;;;;19.50;89.10;;;;;;5036117;28;20065;-64
2022/08/13 04:45:05;;;;;;;;;;;19.50;88.70;;;;;;5035964;28;19974;-64
2022/08/13 04:47:41;;;;;;;;;;;19.50;89.20;;;;;;5035768;28;20032;-65
2022/08/13 04:50:10;;;;;;;;;;;19.60;88.90;;;;;;5035918;28;19973;-64
2022/08/13 04:52:38;;;;;;;;;;;19.60;88.70;;;;;;5035794;28;20633;-64
2022/08/13 04:55:06;;;;;;;;;;;19.60;89.10;;;;;;5036137;28;19992;-64
2022/08/13 04:57:41;;;;;;;;;;;19.70;89.30;;;;;;5036114;28;19965;-64
2022/08/13 05:00:24;;;;;;;;;;;19.70;89.70;;;;;;5035439;28;20068;-64
2022/08/13 05:02:53;;;;;;;;;;;19.70;90.00;;;;;;5035509;28;20027;-64
2022/08/13 05:05:24;;;;;;;;;;;19.70;89.90;;;;;;5035511;28;20396;-64
2022/08/13 05:07:53;;;;;;;;;;;19.80;90.10;;;;;;5035769;28;20450;-64
2022/08/13 05:10:21;;;;;;;;;;;19.80;89.50;;;;;;5034586;28;20029;-64
2022/08/13 05:12:58;;;;;;;;;;;19.80;90.10;;;;;;5035104;28;20355;-64
2022/08/13 05:15:30;;;;;;;;;;;19.80;89.50;;;;;;5034801;28;20444;-64
2022/08/13 05:18:16;;;;;;;;;;;19.90;89.70;;;;;;5034407;28;20071;-64
2022/08/13 05:20:55;;;;;;;;;;;20.00;89.80;;;;;;5034461;28;20026;-64
2022/08/13 05:23:23;;;;;;;;;;;20.00;90.60;;;;;;5035073;28;20543;-64
2022/08/13 05:26:12;;;;;;;;;;;20.00;90.70;;;;;;5034934;28;20115;-64
2022/08/13 05:29:04;;;;;;;;;;;20.20;90.70;;;;;;5034568;28;20038;-64
2022/08/13 05:31:33;;;;;;;;;;;20.20;90.80;;;;;;5034099;28;20064;-64
2022/08/13 05:34:23;;;;;;;;;;;20.20;90.30;;;;;;5034853;28;20003;-64
2022/08/13 05:36:52;;;;;;;;;;;20.30;90.00;;;;;;5054163;28;19979;-64
2022/08/13 05:39:41;;;;;;;;;;;20.30;90.90;;;;;;5054410;28;20252;-64
2022/08/13 05:42:18;;;;;;;;;;;20.40;90.70;;;;;;5054328;28;19977;-65
2022/08/13 05:44:47;;;;;;;;;;;20.50;90.50;;;;;;5054672;28;20019;-64
2022/08/13 05:47:16;;;;;;;;;;;20.50;90.90;;;;;;5054136;28;20008;-66
2022/08/13 05:49:52;;;;;;;;;;;20.60;90.90;;;;;;5054373;28;20633;-64
2022/08/13 05:52:25;;;;;;;;;;;20.70;90.90;;;;;;5054238;28;19968;-64
2022/08/13 05:55:14;;;;;;;;;;;20.70;90.90;;;;;;5054296;28;20467;-64
2022/08/13 05:58:02;;;;;;;;;;;20.80;90.70;;;;;;5053587;28;20169;-64
2022/08/13 06:03:35;;;;;;;;;;;20.90;90.70;;;;;;5053692;28;20317;-64
2022/08/13 06:06:25;;;;;;;;;;;21.10;90.70;;;;;;5053999;28;20005;-65
2022/08/13 06:09:02;;;;;;;;;;;21.20;90.20;;;;;;5053769;28;19996;-64
2022/08/13 06:11:38;;;;;;;;;;;21.30;90.50;;;;;;5053652;28;20032;-64
2022/08/13 06:14:26;;;;;;;;;;;21.40;90.80;;;;;;5054059;28;20679;-65
2022/08/13 06:16:59;;;;;;;;;;;21.50;90.70;;;;;;5052999;28;20034;-64
2022/08/13 06:19:28;;;;;;;;;;;21.60;90.00;;;;;;5053329;28;20470;-64
2022/08/13 06:22:00;;;;;;;;;;;21.60;89.00;;;;;;5053209;28;19970;-64
2022/08/13 06:24:29;;;;;;;;;;;21.70;90.20;;;;;;5053053;28;19983;-64
2022/08/13 06:27:04;;;;;;;;;;;21.80;88.60;;;;;;5053384;28;19970;-64
2022/08/13 06:29:41;;;;;;;;;;;21.70;89.00;;;;;;5052894;28;19969;-64
2022/08/13 06:32:19;;;;;;;;;;;21.80;89.80;;;;;;5052855;28;19973;-64
2022/08/13 06:35:08;;;;;;;;;;;22.00;90.20;;;;;;5053264;28;20415;-65
2022/08/13 06:37:41;;;;;;;;;;;22.10;89.10;;;;;;5053068;28;20711;-64
2022/08/13 06:40:20;;;;;;;;;;;22.30;89.50;;;;;;5052775;28;20057;-64
2022/08/13 06:43:00;;;;;;;;;;;22.40;88.10;;;;;;5052790;28;20019;-64
2022/08/13 06:45:29;;;;;;;;;;;22.50;87.40;;;;;;5053318;28;20143;-64
2022/08/13 06:48:01;;;;;;;;;;;22.60;88.00;;;;;;5053063;28;19975;-64
2022/08/13 06:50:33;;;;;;;;;;;22.70;86.80;;;;;;5052725;28;19980;-64
2022/08/13 06:53:04;;;;;;;;;;;22.80;86.70;;;;;;5052650;28;19971;-64
2022/08/13 06:55:52;;;;;;;;;;;22.90;84.80;;;;;;5052743;28;20006;-65
2022/08/13 06:58:42;;;;;;;;;;;23.00;85.90;;;;;;5052877;28;20471;-65
2022/08/13 07:01:12;;;;;;;;;;;23.20;85.20;;;;;;5052519;28;20325;-65
2022/08/13 07:03:40;;;;;;;;;;;23.40;85.10;;;;;;5052774;28;20216;-64
2022/08/13 07:06:14;;;;;;;;;;;23.50;85.90;;;;;;5052391;28;20070;-65
2022/08/13 07:08:44;;;;;;;;;;;23.60;82.70;;;;;;5052365;28;19985;-64
2022/08/13 07:11:24;;;;;;;;;;;23.60;82.30;;;;;;5052294;28;19970;-65
2022/08/13 07:14:07;;;;;;;;;;;23.70;83.40;;;;;;5052077;28;19970;-64
2022/08/13 07:16:40;;;;;;;;;;;23.90;82.70;;;;;;5052373;28;20014;-65
2022/08/13 07:19:10;;;;;;;;;;;24.00;82.60;;;;;;5051773;28;19971;-65
2022/08/13 07:21:38;;;;;;;;;;;24.20;80.50;;;;;;5051903;28;20117;-65
2022/08/13 07:24:11;;;;;;;;;;;24.30;79.80;;;;;;5052242;28;20014;-64
2022/08/13 07:27:03;;;;;;;;;;;24.40;80.00;;;;;;5052146;28;20119;-64
2022/08/13 07:29:32;;;;;;;;;;;24.60;79.80;;;;;;5051808;28;19971;-64
2022/08/13 07:32:18;;;;;;;;;;;24.80;79.40;;;;;;5051494;28;20023;-65
2022/08/13 07:34:47;;;;;;;;;;;24.90;78.70;;;;;;5051216;28;20415;-65
2022/08/13 07:37:20;;;;;;;;;;;25.00;77.40;;;;;;5051827;28;20019;-65
2022/08/13 07:39:51;;;;;;;;;;;25.10;77.80;;;;;;5051500;28;20033;-64
2022/08/13 07:42:21;;;;;;;;;;;25.40;77.60;;;;;;5053593;28;19981;-65
2022/08/13 07:44:57;;;;;;;;;;;25.50;77.00;;;;;;5055076;28;20537;-65
2022/08/13 07:47:50;;;;;;;;;;;25.60;75.30;;;;;;5055710;28;20293;-65
2022/08/13 07:50:38;;;;;;;;;;;25.80;74.60;;;;;;5055220;28;20353;-65
2022/08/13 07:53:10;;;;;;;;;;;25.90;74.80;;;;;;5055354;28;19993;-65
2022/08/13 07:55:44;;;;;;;;;;;25.90;75.40;;;;;;5055605;28;20440;-65
2022/08/13 07:58:33;;;;;;;;;;;26.00;73.60;;;;;;5055059;28;20696;-65
2022/08/13 08:01:01;;;;;;;;;;;26.20;74.40;;;;;;5054812;28;21383;-65
2022/08/13 08:03:32;;;;;;;;;;;26.40;73.90;;;;;;5054963;28;20110;-66
2022/08/13 08:06:21;;;;;;;;;;;26.40;73.30;;;;;;5054722;28;20458;-65
2022/08/13 08:08:57;;;;;;;;;;;26.50;74.20;;;;;;5055131;28;20454;-65
2022/08/13 08:14:18;;;;;;;;;;;26.70;73.50;;;;;;5054737;28;20876;-65
2022/08/13 08:16:59;;;;;;;;;;;26.80;73.20;;;;;;5054887;28;20833;-65
2022/08/13 08:19:47;;;;;;;;;;;26.90;73.30;;;;;;5054385;28;20408;-64
2022/08/13 08:22:35;;;;;;;;;;;27.10;72.70;;;;;;5054661;28;20164;-65
2022/08/13 08:25:04;;;;;;;;;;;27.20;72.40;;;;;;5054223;28;20597;-65
2022/08/13 08:27:48;;;;;;;;;;;27.50;71.90;;;;;;5054596;28;20994;-65
2022/08/13 08:30:37;;;;;;;;;;;27.60;70.60;;;;;;5054562;28;20103;-65
2022/08/13 08:33:18;;;;;;;;;;;27.60;71.70;;;;;;5054498;28;20429;-66
2022/08/13 08:36:07;;;;;;;;;;;27.90;71.00;;;;;;5053986;28;20047;-65
2022/08/13 08:44:23;;;;;;;;;;;28.40;71.10;;;;;;5054032;28;20429;-65
2022/08/13 08:46:52;;;;;;;;;;;28.50;69.90;;;;;;5054532;28;20168;-65
2022/08/13 08:49:22;;;;;;;;;;;28.70;70.90;;;;;;5054119;28;20713;-65
2022/08/13 08:52:02;;;;;;;;;;;28.60;69.70;;;;;;5054062;28;20160;-65
2022/08/13 08:54:30;;;;;;;;;;;28.50;69.70;;;;;;5053654;28;20483;-65
2022/08/13 08:57:01;;;;;;;;;;;28.80;70.00;;;;;;5053663;28;20877;-65
2022/08/13 08:59:32;;;;;;;;;;;29.10;69.50;;;;;;5053851;28;20430;-65
2022/08/13 09:02:00;;;;;;;;;;;29.10;69.00;;;;;;5053844;28;20748;-66
2022/08/13 09:04:30;;;;;;;;;;;29.00;68.90;;;;;;5053539;28;20992;-65
2022/08/13 09:07:18;;;;;;;;;;;29.00;68.80;;;;;;5054094;28;20771;-65
2022/08/13 09:09:50;;;;;;;;;;;29.20;68.50;;;;;;5053750;28;20198;-65
2022/08/13 09:12:25;;;;;;;;;;;29.50;68.20;;;;;;5053787;28;20830;-65
2022/08/13 09:14:57;;;;;;;;;;;29.60;68.40;;;;;;5053403;28;20470;-65
2022/08/13 09:17:25;;;;;;;;;;;29.50;68.40;;;;;;5053682;28;20162;-65
2022/08/13 09:20:12;;;;;;;;;;;29.60;68.20;;;;;;5053387;28;25119;-65
2022/08/13 09:22:44;;;;;;;;;;;30.00;67.80;;;;;;5053886;28;20079;-65
2022/08/13 09:25:23;;;;;;;;;;;29.90;67.00;;;;;;5053586;28;20242;-65
2022/08/13 09:27:53;;;;;;;;;;;30.00;67.20;;;;;;5053572;28;20429;-65
2022/08/13 09:30:43;;;;;;;;;;;30.00;67.50;;;;;;5053480;28;20885;-65
2022/08/13 09:33:16;;;;;;;;;;;30.10;67.00;;;;;;5053433;28;20365;-65
2022/08/13 09:36:06;;;;;;;;;;;30.00;66.70;;;;;;5054547;28;20663;-65
2022/08/13 09:38:35;;;;;;;;;;;29.90;67.00;;;;;;5053365;28;20281;-65
2022/08/13 09:41:07;;;;;;;;;;;30.30;66.50;;;;;;5053178;28;20152;-65
2022/08/13 09:43:46;;;;;;;;;;;30.70;66.80;;;;;;5053188;28;20223;-67
2022/08/13 09:46:23;;;;;;;;;;;30.80;65.50;;;;;;5053622;28;20808;-66
2022/08/13 09:48:56;;;;;;;;;;;30.80;65.40;;;;;;5035743;28;20349;-66
2022/08/13 09:51:30;;;;;;;;;;;31.10;65.50;;;;;;5053054;28;20413;-65
2022/08/13 09:54:22;;;;;;;;;;;31.30;64.90;;;;;;5053076;28;20788;-66
2022/08/13 09:56:58;;;;;;;;;;;31.30;65.10;;;;;;5053272;28;20308;-66
2022/08/13 09:59:28;;;;;;;;;;;31.40;64.80;;;;;;5052855;28;20217;-66
2022/08/13 10:02:05;;;;;;;;;;;30.90;64.50;;;;;;5053175;28;20225;-65
2022/08/13 10:04:37;;;;;;;;;;;30.70;65.20;;;;;;5052484;28;25064;-65
2022/08/13 10:07:08;;;;;;;;;;;30.90;65.30;;;;;;5052977;28;21275;-65
2022/08/13 10:09:46;;;;;;;;;;;30.80;65.10;;;;;;5052847;28;20192;-65
2022/08/13 10:12:33;;;;;;;;;;;31.20;64.60;;;;;;5052929;28;20389;-66
2022/08/13 10:15:01;;;;;;;;;;;31.40;64.10;;;;;;5052296;28;20314;-66
2022/08/13 10:17:43;;;;;;;;;;;31.00;65.70;;;;;;5052489;28;20968;-65
2022/08/13 10:20:17;;;;;;;;;;;31.00;64.30;;;;;;5052393;28;21243;-65
2022/08/13 10:22:46;;;;;;;;;;;31.30;64.00;;;;;;5052599;28;20580;-66
2022/08/13 10:25:15;;;;;;;;;;;31.40;64.60;;;;;;5052458;28;20426;-65
2022/08/13 10:27:45;;;;;;;;;;;31.70;64.10;;;;;;5052561;28;20606;-65
2022/08/13 10:30:17;;;;;;;;;;;31.90;64.10;;;;;;5034430;28;20816;-65
2022/08/13 10:33:06;;;;;;;;;;;31.90;62.60;;;;;;5052483;28;21070;-65
2022/08/13 10:35:36;;;;;;;;;;;31.90;63.50;;;;;;5052357;28;20776;-66
2022/08/13 10:38:08;;;;;;;;;;;32.30;62.60;;;;;;5052892;28;20044;-66
2022/08/13 10:40:36;;;;;;;;;;;32.00;63.00;;;;;;5051838;28;20732;-65
2022/08/13 10:43:05;;;;;;;;;;;31.70;62.90;;;;;;5052422;28;20514;-65
2022/08/13 10:45:46;;;;;;;;;;;32.10;63.00;;;;;;5052248;28;20727;-65
2022/08/13 10:48:17;;;;;;;;;;;32.30;62.70;;;;;;5052520;28;20369;-65
2022/08/13 10:50:46;;;;;;;;;;;32.60;61.60;;;;;;5052353;28;21008;-65
2022/08/13 10:56:10;;;;;;;;;;;33.50;61.60;;;;;;5051910;28;20781;-65
2022/08/13 10:58:38;;;;;;;;;;;33.30;61.70;;;;;;5052187;28;20790;-65
2022/08/13 11:01:22;;;;;;;;;;;33.10;61.20;;;;;;5051595;28;25136;-66
2022/08/13 11:03:52;;;;;;;;;;;32.80;60.20;;;;;;5052178;28;20051;-66
2022/08/13 11:06:33;;;;;;;;;;;33.00;60.90;;;;;;5051572;28;25129;-66
2022/08/13 11:09:01;;;;;;;;;;;33.40;61.20;;;;;;5051782;28;20048;-65
2022/08/13 11:11:49;;;;;;;;;;;33.50;60.50;;;;;;5051491;28;25085;-66
2022/08/13 11:14:20;;;;;;;;;;;33.10;60.20;;;;;;5052407;28;20165;-66
2022/08/13 11:16:58;;;;;;;;;;;32.40;60.80;;;;;;5052949;28;20332;-66
2022/08/13 11:19:34;;;;;;;;;;;31.70;61.40;;;;;;5056122;28;20098;-65
2022/08/13 11:22:19;;;;;;;;;;;31.80;61.80;;;;;;5055972;28;20678;-66
2022/08/13 11:24:55;;;;;;;;;;;32.10;62.30;;;;;;5055318;28;20280;-66
2022/08/13 11:27:23;;;;;;;;;;;32.70;61.00;;;;;;5055789;28;20647;-66
2022/08/13 11:30:12;;;;;;;;;;;32.80;59.70;;;;;;5055433;28;20644;-66
2022/08/13 11:32:46;;;;;;;;;;;33.00;59.90;;;;;;5055025;28;25142;-66
2022/08/13 11:35:16;;;;;;;;;;;33.10;59.30;;;;;;5054982;28;20821;-66
2022/08/13 11:37:47;;;;;;;;;;;33.40;59.80;;;;;;5054961;28;21276;-66
2022/08/13 11:40:20;;;;;;;;;;;33.40;59.30;;;;;;5055319;28;20839;-66
2022/08/13 11:43:00;;;;;;;;;;;33.40;59.10;;;;;;5055476;28;20847;-66
2022/08/13 11:45:37;;;;;;;;;;;33.70;59.30;;;;;;5055133;28;20611;-66
2022/08/13 11:48:13;;;;;;;;;;;33.60;59.30;;;;;;5055488;28;20271;-66
2022/08/13 11:50:48;;;;;;;;;;;33.80;60.20;;;;;;5055026;28;25132;-66
2022/08/13 11:53:17;;;;;;;;;;;34.00;59.40;;;;;;5055225;28;20130;-66
2022/08/13 11:55:47;;;;;;;;;;;33.90;58.70;;;;;;5054600;28;25087;-66
2022/08/13 11:58:28;;;;;;;;;;;33.40;58.20;;;;;;5055096;28;21211;-66
2022/08/13 12:01:16;;;;;;;;;;;32.70;58.70;;;;;;5054740;28;21084;-66
2022/08/13 12:03:53;;;;;;;;;;;32.40;58.60;;;;;;5054920;28;25133;-66
2022/08/13 12:06:42;;;;;;;;;;;32.40;59.30;;;;;;5054625;28;20355;-66
2022/08/13 12:09:18;;;;;;;;;;;32.70;60.00;;;;;;5054962;28;20760;-66
2022/08/13 12:12:06;;;;;;;;;;;32.90;59.90;;;;;;5054665;28;25116;-66
2022/08/13 12:14:38;;;;;;;;;;;33.20;60.30;;;;;;5054706;28;20053;-67
2022/08/13 12:17:06;;;;;;;;;;;33.50;58.70;;;;;;5054887;28;20498;-66
2022/08/13 12:19:34;;;;;;;;;;;33.70;58.40;;;;;;5054509;28;25073;-66
2022/08/13 12:22:03;;;;;;;;;;;33.80;58.60;;;;;;5054725;28;20149;-66
2022/08/13 12:24:33;;;;;;;;;;;34.20;57.40;;;;;;5054367;28;20180;-66
2022/08/13 12:27:03;;;;;;;;;;;34.70;56.60;;;;;;5054194;28;21090;-66
2022/08/13 12:29:31;;;;;;;;;;;34.90;57.50;;;;;;5054039;28;20290;-65
2022/08/13 12:32:13;;;;;;;;;;;35.30;56.50;;;;;;5054108;28;20222;-66
2022/08/13 12:34:41;;;;;;;;;;;34.80;56.10;;;;;;5053889;28;21108;-66
2022/08/13 12:37:16;;;;;;;;;;;34.20;56.30;;;;;;5054385;28;20416;-66
2022/08/13 12:39:50;;;;;;;;;;;34.20;56.50;;;;;;5054178;28;20723;-66
2022/08/13 12:42:19;;;;;;;;;;;34.30;56.40;;;;;;5054155;28;25133;-66
2022/08/13 12:44:48;;;;;;;;;;;34.60;57.10;;;;;;5053945;28;20128;-67
2022/08/13 12:47:35;;;;;;;;;;;34.50;55.90;;;;;;5054007;28;20686;-66
2022/08/13 12:50:03;;;;;;;;;;;35.00;57.00;;;;;;5053998;28;25066;-66
2022/08/13 12:52:35;;;;;;;;;;;34.90;56.40;;;;;;5053913;28;20588;-66
2022/08/13 12:55:04;;;;;;;;;;;34.20;56.80;;;;;;5053689;28;20185;-66
2022/08/13 12:57:42;;;;;;;;;;;34.20;57.60;;;;;;5053944;28;20224;-66
2022/08/13 13:00:30;;;;;;;;;;;34.10;56.80;;;;;;5053633;28;20747;-66
2022/08/13 13:02:59;;;;;;;;;;;34.60;57.60;;;;;;5053886;28;20201;-66
2022/08/13 13:05:29;;;;;;;;;;;34.40;56.30;;;;;;5053585;28;20919;-66
2022/08/13 13:08:18;;;;;;;;;;;34.40;55.90;;;;;;5053948;28;20204;-66
2022/08/13 13:11:04;;;;;;;;;;;35.10;55.50;;;;;;5053655;28;20661;-66
2022/08/13 13:13:41;;;;;;;;;;;35.70;55.90;;;;;;5053704;28;20712;-66
2022/08/13 13:16:22;;;;;;;;;;;36.10;54.70;;;;;;5053422;28;20313;-66
2022/08/13 13:19:04;;;;;;;;;;;36.70;54.20;;;;;;5053733;28;20183;-66
2022/08/13 13:21:43;;;;;;;;;;;36.80;53.80;;;;;;5053322;28;20283;-67
2022/08/13 13:24:13;;;;;;;;;;;36.50;54.00;;;;;;5053837;28;20174;-66
2022/08/13 13:26:49;;;;;;;;;;;36.60;53.90;;;;;;5053898;28;20244;-66
2022/08/13 13:29:24;;;;;;;;;;;36.60;52.90;;;;;;5054081;28;20206;-67
2022/08/13 13:31:52;;;;;;;;;;;36.60;53.30;;;;;;5052897;28;20284;-66
2022/08/13 13:34:43;;;;;;;;;;;35.90;53.60;;;;;;5053043;28;20271;-67
2022/08/13 13:37:12;;;;;;;;;;;36.10;53.00;;;;;;5053308;28;20188;-66
2022/08/13 13:39:41;;;;;;;;;;;36.40;53.50;;;;;;5052477;28;20220;-66
2022/08/13 13:42:11;;;;;;;;;;;36.30;53.90;;;;;;5052963;28;20235;-66
2022/08/13 13:44:44;;;;;;;;;;;36.50;52.90;;;;;;5053113;28;20270;-66
2022/08/13 13:47:12;;;;;;;;;;;36.00;52.90;;;;;;5053043;28;20221;-66
2022/08/13 13:49:41;;;;;;;;;;;35.60;54.00;;;;;;5052495;28;25118;-66
2022/08/13 13:52:10;;;;;;;;;;;35.50;54.10;;;;;;5052710;28;20678;-66
2022/08/13 13:54:40;;;;;;;;;;;36.00;53.20;;;;;;5053112;28;20261;-66
2022/08/13 13:57:25;;;;;;;;;;;36.60;53.60;;;;;;5052996;28;20529;-66
2022/08/13 14:00:06;;;;;;;;;;;37.30;52.80;;;;;;5052573;28;20232;-68
2022/08/13 14:02:36;;;;;;;;;;;37.50;52.50;;;;;;5052590;28;25100;-67
2022/08/13 14:05:07;;;;;;;;;;;37.10;52.70;;;;;;5052809;28;20714;-67
2022/08/13 14:07:52;;;;;;;;;;;36.80;52.30;;;;;;5052800;28;20187;-66
2022/08/13 14:10:20;;;;;;;;;;;36.50;52.90;;;;;;5052276;28;20603;-67
2022/08/13 14:12:49;;;;;;;;;;;36.50;52.60;;;;;;5052674;28;20197;-66
2022/08/13 14:15:37;;;;;;;;;;;36.70;52.30;;;;;;5052633;28;20700;-66
2022/08/13 14:18:07;;;;;;;;;;;36.80;52.20;;;;;;5052546;28;25070;-66
2022/08/13 14:20:54;;;;;;;;;;;36.70;51.70;;;;;;5051943;28;20714;-66
2022/08/13 14:23:25;;;;;;;;;;;36.90;52.00;;;;;;5052644;28;20202;-66
2022/08/13 14:26:07;;;;;;;;;;;36.30;52.20;;;;;;5052458;28;20646;-66
2022/08/13 14:28:43;;;;;;;;;;;37.00;52.70;;;;;;5052299;28;20678;-66
2022/08/13 14:31:14;;;;;;;;;;;37.10;52.10;;;;;;5051584;28;20202;-66
2022/08/13 14:33:43;;;;;;;;;;;36.80;52.30;;;;;;5052193;28;20172;-66
2022/08/13 14:36:28;;;;;;;;;;;36.80;52.70;;;;;;5052101;28;20322;-67
2022/08/13 14:38:58;;;;;;;;;;;36.30;52.60;;;;;;5052062;28;20603;-66
2022/08/13 14:41:26;;;;;;;;;;;36.10;53.10;;;;;;5051613;28;20736;-66
2022/08/13 14:43:56;;;;;;;;;;;36.10;52.30;;;;;;5052092;28;20914;-66
2022/08/13 14:46:29;;;;;;;;;;;36.30;52.80;;;;;;5052175;28;20268;-66
2022/08/13 14:48:59;;;;;;;;;;;36.10;53.00;;;;;;5051804;28;25069;-66
2022/08/13 14:51:28;;;;;;;;;;;35.50;52.70;;;;;;5051507;28;20652;-66
2022/08/13 14:54:16;;;;;;;;;;;35.90;52.60;;;;;;5052052;28;20225;-66
2022/08/13 14:56:47;;;;;;;;;;;35.70;53.10;;;;;;5051845;28;25069;-66
2022/08/13 14:59:18;;;;;;;;;;;35.80;53.10;;;;;;5052076;28;20179;-68
2022/08/13 15:01:47;;;;;;;;;;;35.90;52.60;;;;;;5051736;28;20299;-67
2022/08/13 15:04:18;;;;;;;;;;;36.20;53.00;;;;;;5052150;28;20305;-66
2022/08/13 15:06:55;;;;;;;;;;;36.10;52.40;;;;;;5051830;28;25075;-66
2022/08/13 15:09:23;;;;;;;;;;;36.10;53.00;;;;;;5051765;28;20719;-67
2022/08/13 15:11:51;;;;;;;;;;;36.20;52.90;;;;;;5051296;28;20268;-67
2022/08/13 15:14:24;;;;;;;;;;;36.60;52.70;;;;;;5051883;28;20673;-67
2022/08/13 15:16:53;;;;;;;;;;;36.40;53.00;;;;;;5051761;28;20674;-66
2022/08/13 15:19:24;;;;;;;;;;;36.20;52.10;;;;;;5051957;28;20204;-66
2022/08/13 15:21:53;;;;;;;;;;;36.40;52.10;;;;;;5051470;28;20253;-67
2022/08/13 15:24:28;;;;;;;;;;;36.40;52.90;;;;;;5051917;28;20539;-67
2022/08/13 15:27:08;;;;;;;;;;;36.20;52.30;;;;;;5051935;28;20198;-66
2022/08/13 15:29:39;;;;;;;;;;;35.80;52.80;;;;;;5051630;28;20187;-66